sensor_id;sensor_type;location;lat;lon;timestamp;P1;durP1;ratioP1;P2;durP2;ratioP2
7843;SDS011;3967;48.702;9.326;2023-08-30T00:00:20;8.77;;;7.97;;
7843;SDS011;3967;48.702;9.326;2023-08-30T00:02:47;8.40;;;7.47;;
7843;SDS011;3967;48.702;9.326;2023-08-30T00:05:14;7.97;;;7.27;;
7843;SDS011;3967;48.702;9.326;2023-08-30T00:07:40;7.37;;;6.77;;
7843;SDS011;3967;48.702;9.326;2023-08-30T00:10:07;7.93;;;7.33;;
7843;SDS011;3967;48.702;9.326;2023-08-30T00:12:36;6.70;;;6.10;;
7843;SDS011;3967;48.702;9.326;2023-08-30T00:15:03;7.43;;;6.83;;
7843;SDS011;3967;48.702;9.326;2023-08-30T00:17:30;6.93;;;6.43;;
7843;SDS011;3967;48.702;9.326;2023-08-30T00:19:57;6.90;;;6.43;;
7843;SDS011;3967;48.702;9.326;2023-08-30T00:22:24;7.67;;;6.80;;
7843;SDS011;3967;48.702;9.326;2023-08-30T00:24:53;6.43;;;5.83;;
7843;SDS011;3967;48.702;9.326;2023-08-30T00:27:20;8.43;;;7.63;;
7843;SDS011;3967;48.702;9.326;2023-08-30T00:29:47;8.30;;;7.60;;
7843;SDS011;3967;48.702;9.326;2023-08-30T00:32:14;7.37;;;6.77;;
7843;SDS011;3967;48.702;9.326;2023-08-30T00:34:41;7.37;;;6.77;;
7843;SDS011;3967;48.702;9.326;2023-08-30T00:37:07;6.60;;;6.00;;
7843;SDS011;3967;48.702;9.326;2023-08-30T00:39:38;8.57;;;7.57;;
7843;SDS011;3967;48.702;9.326;2023-08-30T00:42:05;7.40;;;6.90;;
7843;SDS011;3967;48.702;9.326;2023-08-30T00:44:33;7.47;;;6.90;;
7843;SDS011;3967;48.702;9.326;2023-08-30T00:47:00;7.20;;;6.70;;
7843;SDS011;3967;48.702;9.326;2023-08-30T00:49:28;8.43;;;7.80;;
7843;SDS011;3967;48.702;9.326;2023-08-30T00:52:00;8.30;;;7.47;;
7843;SDS011;3967;48.702;9.326;2023-08-30T00:54:29;7.53;;;6.90;;
7843;SDS011;3967;48.702;9.326;2023-08-30T00:56:56;9.03;;;7.20;;
7843;SDS011;3967;48.702;9.326;2023-08-30T00:59:23;7.93;;;7.20;;
7843;SDS011;3967;48.702;9.326;2023-08-30T01:01:50;7.00;;;6.50;;
7843;SDS011;3967;48.702;9.326;2023-08-30T01:04:17;9.03;;;8.23;;
7843;SDS011;3967;48.702;9.326;2023-08-30T01:06:45;7.40;;;6.87;;
7843;SDS011;3967;48.702;9.326;2023-08-30T01:09:12;8.10;;;7.37;;
7843;SDS011;3967;48.702;9.326;2023-08-30T01:17:08;8.63;;;8.00;;
7843;SDS011;3967;48.702;9.326;2023-08-30T01:22:39;7.20;;;6.70;;
7843;SDS011;3967;48.702;9.326;2023-08-30T01:27:57;9.00;;;7.20;;
7843;SDS011;3967;48.702;9.326;2023-08-30T01:30:27;10.50;;;9.60;;
7843;SDS011;3967;48.702;9.326;2023-08-30T01:32:55;9.47;;;8.57;;
7843;SDS011;3967;48.702;9.326;2023-08-30T01:35:22;9.67;;;8.77;;
7843;SDS011;3967;48.702;9.326;2023-08-30T01:37:50;8.53;;;7.87;;
7843;SDS011;3967;48.702;9.326;2023-08-30T01:40:18;8.57;;;7.90;;
7843;SDS011;3967;48.702;9.326;2023-08-30T01:42:46;9.63;;;8.27;;
7843;SDS011;3967;48.702;9.326;2023-08-30T01:45:14;8.77;;;7.97;;
7843;SDS011;3967;48.702;9.326;2023-08-30T01:47:42;7.77;;;7.17;;
7843;SDS011;3967;48.702;9.326;2023-08-30T01:50:11;7.87;;;7.17;;
7843;SDS011;3967;48.702;9.326;2023-08-30T01:52:38;8.13;;;7.43;;
7843;SDS011;3967;48.702;9.326;2023-08-30T01:55:07;7.73;;;7.13;;
7843;SDS011;3967;48.702;9.326;2023-08-30T01:57:34;7.53;;;7.00;;
7843;SDS011;3967;48.702;9.326;2023-08-30T02:00:01;7.60;;;6.80;;
7843;SDS011;3967;48.702;9.326;2023-08-30T02:02:29;7.47;;;6.97;;
7843;SDS011;3967;48.702;9.326;2023-08-30T02:04:56;8.50;;;7.80;;
7843;SDS011;3967;48.702;9.326;2023-08-30T02:07:27;9.57;;;8.80;;
7843;SDS011;3967;48.702;9.326;2023-08-30T02:10:00;7.87;;;7.27;;
7843;SDS011;3967;48.702;9.326;2023-08-30T02:12:34;9.23;;;8.43;;
7843;SDS011;3967;48.702;9.326;2023-08-30T02:15:08;7.80;;;7.10;;
7843;SDS011;3967;48.702;9.326;2023-08-30T02:17:38;7.53;;;7.00;;
7843;SDS011;3967;48.702;9.326;2023-08-30T02:20:05;13.77;;;8.80;;
7843;SDS011;3967;48.702;9.326;2023-08-30T02:22:33;8.10;;;6.90;;
7843;SDS011;3967;48.702;9.326;2023-08-30T02:25:01;8.37;;;7.67;;
7843;SDS011;3967;48.702;9.326;2023-08-30T02:27:31;9.57;;;8.67;;
7843;SDS011;3967;48.702;9.326;2023-08-30T02:29:58;11.30;;;10.30;;
7843;SDS011;3967;48.702;9.326;2023-08-30T02:32:25;11.73;;;10.57;;
7843;SDS011;3967;48.702;9.326;2023-08-30T02:34:52;11.30;;;10.30;;
7843;SDS011;3967;48.702;9.326;2023-08-30T02:37:22;11.43;;;10.33;;
7843;SDS011;3967;48.702;9.326;2023-08-30T02:39:51;10.13;;;8.87;;
7843;SDS011;3967;48.702;9.326;2023-08-30T02:42:18;9.30;;;8.57;;
7843;SDS011;3967;48.702;9.326;2023-08-30T02:44:44;9.57;;;8.57;;
7843;SDS011;3967;48.702;9.326;2023-08-30T02:47:11;10.53;;;9.63;;
7843;SDS011;3967;48.702;9.326;2023-08-30T02:49:37;10.17;;;9.27;;
7843;SDS011;3967;48.702;9.326;2023-08-30T02:52:04;10.40;;;9.40;;
7843;SDS011;3967;48.702;9.326;2023-08-30T02:54:31;11.53;;;10.63;;
7843;SDS011;3967;48.702;9.326;2023-08-30T02:56:58;10.67;;;9.67;;
7843;SDS011;3967;48.702;9.326;2023-08-30T02:59:24;11.10;;;10.20;;
7843;SDS011;3967;48.702;9.326;2023-08-30T03:01:51;11.13;;;10.13;;
7843;SDS011;3967;48.702;9.326;2023-08-30T03:04:18;10.60;;;9.70;;
7843;SDS011;3967;48.702;9.326;2023-08-30T03:06:45;11.20;;;10.20;;
7843;SDS011;3967;48.702;9.326;2023-08-30T03:09:11;11.00;;;10.10;;
7843;SDS011;3967;48.702;9.326;2023-08-30T03:11:38;11.10;;;10.00;;
7843;SDS011;3967;48.702;9.326;2023-08-30T03:14:05;10.73;;;9.83;;
7843;SDS011;3967;48.702;9.326;2023-08-30T03:16:31;11.03;;;10.03;;
7843;SDS011;3967;48.702;9.326;2023-08-30T03:18:58;10.67;;;9.67;;
7843;SDS011;3967;48.702;9.326;2023-08-30T03:21:26;11.10;;;10.20;;
7843;SDS011;3967;48.702;9.326;2023-08-30T03:23:53;10.80;;;9.87;;
7843;SDS011;3967;48.702;9.326;2023-08-30T03:26:20;9.70;;;8.90;;
7843;SDS011;3967;48.702;9.326;2023-08-30T03:28:46;11.10;;;10.20;;
7843;SDS011;3967;48.702;9.326;2023-08-30T03:31:20;10.83;;;9.87;;
7843;SDS011;3967;48.702;9.326;2023-08-30T03:33:47;10.77;;;9.90;;
7843;SDS011;3967;48.702;9.326;2023-08-30T03:36:15;9.77;;;8.87;;
7843;SDS011;3967;48.702;9.326;2023-08-30T03:38:44;10.57;;;9.67;;
7843;SDS011;3967;48.702;9.326;2023-08-30T03:41:12;9.47;;;8.77;;
7843;SDS011;3967;48.702;9.326;2023-08-30T03:43:39;10.87;;;9.93;;
7843;SDS011;3967;48.702;9.326;2023-08-30T03:46:05;9.93;;;8.97;;
7843;SDS011;3967;48.702;9.326;2023-08-30T03:48:32;10.13;;;9.23;;
7843;SDS011;3967;48.702;9.326;2023-08-30T03:50:59;10.57;;;9.63;;
7843;SDS011;3967;48.702;9.326;2023-08-30T03:53:26;9.53;;;8.80;;
7843;SDS011;3967;48.702;9.326;2023-08-30T03:55:53;10.40;;;9.40;;
7843;SDS011;3967;48.702;9.326;2023-08-30T03:58:20;9.10;;;8.40;;
7843;SDS011;3967;48.702;9.326;2023-08-30T04:00:47;9.97;;;9.10;;
7843;SDS011;3967;48.702;9.326;2023-08-30T04:03:14;12.90;;;11.60;;
7843;SDS011;3967;48.702;9.326;2023-08-30T04:05:42;9.93;;;9.03;;
7843;SDS011;3967;48.702;9.326;2023-08-30T04:08:08;9.73;;;8.93;;
7843;SDS011;3967;48.702;9.326;2023-08-30T04:10:39;9.17;;;8.37;;
7843;SDS011;3967;48.702;9.326;2023-08-30T04:13:07;10.43;;;9.57;;
7843;SDS011;3967;48.702;9.326;2023-08-30T04:15:35;9.13;;;8.33;;
7843;SDS011;3967;48.702;9.326;2023-08-30T04:18:03;8.63;;;7.83;;
7843;SDS011;3967;48.702;9.326;2023-08-30T04:20:31;9.97;;;9.07;;
7843;SDS011;3967;48.702;9.326;2023-08-30T04:22:58;10.07;;;9.27;;
7843;SDS011;3967;48.702;9.326;2023-08-30T04:25:28;10.00;;;9.00;;
7843;SDS011;3967;48.702;9.326;2023-08-30T04:27:55;13.60;;;9.33;;
7843;SDS011;3967;48.702;9.326;2023-08-30T04:30:22;11.07;;;10.17;;
7843;SDS011;3967;48.702;9.326;2023-08-30T04:32:49;11.10;;;10.20;;
7843;SDS011;3967;48.702;9.326;2023-08-30T04:35:16;9.23;;;8.53;;
7843;SDS011;3967;48.702;9.326;2023-08-30T04:37:43;10.53;;;9.63;;
7843;SDS011;3967;48.702;9.326;2023-08-30T04:40:10;9.97;;;9.17;;
7843;SDS011;3967;48.702;9.326;2023-08-30T04:42:37;11.20;;;9.97;;
7843;SDS011;3967;48.702;9.326;2023-08-30T04:45:07;12.07;;;10.97;;
7843;SDS011;3967;48.702;9.326;2023-08-30T04:47:35;9.00;;;8.30;;
7843;SDS011;3967;48.702;9.326;2023-08-30T04:50:02;9.83;;;8.83;;
7843;SDS011;3967;48.702;9.326;2023-08-30T04:52:29;10.23;;;9.40;;
7843;SDS011;3967;48.702;9.326;2023-08-30T04:54:56;9.80;;;8.80;;
7843;SDS011;3967;48.702;9.326;2023-08-30T04:57:23;11.13;;;9.83;;
7843;SDS011;3967;48.702;9.326;2023-08-30T04:59:50;10.13;;;9.23;;
7843;SDS011;3967;48.702;9.326;2023-08-30T05:02:16;9.23;;;8.43;;
7843;SDS011;3967;48.702;9.326;2023-08-30T05:04:43;8.70;;;8.00;;
7843;SDS011;3967;48.702;9.326;2023-08-30T05:07:10;10.77;;;9.77;;
7843;SDS011;3967;48.702;9.326;2023-08-30T05:09:37;10.87;;;9.67;;
7843;SDS011;3967;48.702;9.326;2023-08-30T05:12:03;10.57;;;9.57;;
7843;SDS011;3967;48.702;9.326;2023-08-30T05:14:30;10.07;;;9.17;;
7843;SDS011;3967;48.702;9.326;2023-08-30T05:16:57;9.17;;;8.37;;
7843;SDS011;3967;48.702;9.326;2023-08-30T05:19:24;9.73;;;8.83;;
7843;SDS011;3967;48.702;9.326;2023-08-30T05:21:50;10.17;;;9.27;;
7843;SDS011;3967;48.702;9.326;2023-08-30T05:24:21;8.93;;;8.23;;
7843;SDS011;3967;48.702;9.326;2023-08-30T05:26:48;10.00;;;9.10;;
7843;SDS011;3967;48.702;9.326;2023-08-30T05:29:15;10.73;;;9.83;;
7843;SDS011;3967;48.702;9.326;2023-08-30T05:31:42;10.93;;;9.97;;
7843;SDS011;3967;48.702;9.326;2023-08-30T05:34:10;9.50;;;8.70;;
7843;SDS011;3967;48.702;9.326;2023-08-30T05:36:37;12.23;;;11.03;;
7843;SDS011;3967;48.702;9.326;2023-08-30T05:39:04;10.93;;;9.93;;
7843;SDS011;3967;48.702;9.326;2023-08-30T05:41:31;11.07;;;10.10;;
7843;SDS011;3967;48.702;9.326;2023-08-30T05:43:58;9.97;;;9.17;;
7843;SDS011;3967;48.702;9.326;2023-08-30T05:46:25;10.50;;;9.60;;
7843;SDS011;3967;48.702;9.326;2023-08-30T05:48:52;10.80;;;9.80;;
7843;SDS011;3967;48.702;9.326;2023-08-30T05:51:20;9.97;;;9.17;;
7843;SDS011;3967;48.702;9.326;2023-08-30T05:53:47;10.03;;;9.13;;
7843;SDS011;3967;48.702;9.326;2023-08-30T05:56:14;9.20;;;8.40;;
7843;SDS011;3967;48.702;9.326;2023-08-30T05:58:40;8.80;;;7.90;;
7843;SDS011;3967;48.702;9.326;2023-08-30T06:01:07;9.77;;;8.97;;
7843;SDS011;3967;48.702;9.326;2023-08-30T06:03:34;10.60;;;9.60;;
7843;SDS011;3967;48.702;9.326;2023-08-30T06:06:01;10.43;;;9.43;;
7843;SDS011;3967;48.702;9.326;2023-08-30T06:08:28;10.87;;;9.87;;
7843;SDS011;3967;48.702;9.326;2023-08-30T06:10:55;9.70;;;8.73;;
7843;SDS011;3967;48.702;9.326;2023-08-30T06:13:22;8.83;;;8.03;;
7843;SDS011;3967;48.702;9.326;2023-08-30T06:15:50;10.83;;;9.73;;
7843;SDS011;3967;48.702;9.326;2023-08-30T06:18:18;10.47;;;9.47;;
7843;SDS011;3967;48.702;9.326;2023-08-30T06:20:45;11.93;;;10.80;;
7843;SDS011;3967;48.702;9.326;2023-08-30T06:23:13;10.80;;;9.90;;
7843;SDS011;3967;48.702;9.326;2023-08-30T06:25:40;10.67;;;9.77;;
7843;SDS011;3967;48.702;9.326;2023-08-30T06:28:07;10.47;;;9.57;;
7843;SDS011;3967;48.702;9.326;2023-08-30T06:30:34;11.17;;;10.07;;
7843;SDS011;3967;48.702;9.326;2023-08-30T06:33:01;10.60;;;9.57;;
7843;SDS011;3967;48.702;9.326;2023-08-30T06:35:28;11.53;;;10.43;;
7843;SDS011;3967;48.702;9.326;2023-08-30T06:37:55;10.57;;;9.57;;
7843;SDS011;3967;48.702;9.326;2023-08-30T06:40:22;10.70;;;9.80;;
7843;SDS011;3967;48.702;9.326;2023-08-30T06:42:49;10.33;;;9.23;;
7843;SDS011;3967;48.702;9.326;2023-08-30T06:45:15;10.83;;;9.30;;
7843;SDS011;3967;48.702;9.326;2023-08-30T06:47:42;10.53;;;9.53;;
7843;SDS011;3967;48.702;9.326;2023-08-30T06:50:09;9.67;;;8.87;;
7843;SDS011;3967;48.702;9.326;2023-08-30T06:52:36;11.03;;;10.13;;
7843;SDS011;3967;48.702;9.326;2023-08-30T06:55:03;11.77;;;10.77;;
7843;SDS011;3967;48.702;9.326;2023-08-30T06:57:30;10.90;;;10.00;;
7843;SDS011;3967;48.702;9.326;2023-08-30T06:59:57;10.27;;;9.20;;
7843;SDS011;3967;48.702;9.326;2023-08-30T07:02:25;10.57;;;9.57;;
7843;SDS011;3967;48.702;9.326;2023-08-30T07:04:54;9.27;;;8.37;;
7843;SDS011;3967;48.702;9.326;2023-08-30T07:07:21;10.33;;;9.53;;
7843;SDS011;3967;48.702;9.326;2023-08-30T07:09:48;9.20;;;8.43;;
7843;SDS011;3967;48.702;9.326;2023-08-30T07:12:14;9.07;;;8.37;;
7843;SDS011;3967;48.702;9.326;2023-08-30T07:14:41;7.90;;;7.17;;
7843;SDS011;3967;48.702;9.326;2023-08-30T07:17:08;9.33;;;8.43;;
7843;SDS011;3967;48.702;9.326;2023-08-30T07:19:35;9.80;;;9.00;;
7843;SDS011;3967;48.702;9.326;2023-08-30T07:22:01;8.90;;;8.10;;
7843;SDS011;3967;48.702;9.326;2023-08-30T07:24:29;8.77;;;8.07;;
7843;SDS011;3967;48.702;9.326;2023-08-30T07:26:59;8.07;;;7.40;;
7843;SDS011;3967;48.702;9.326;2023-08-30T07:29:26;7.63;;;6.93;;
7843;SDS011;3967;48.702;9.326;2023-08-30T07:31:52;7.30;;;6.70;;
7843;SDS011;3967;48.702;9.326;2023-08-30T07:34:20;8.07;;;7.37;;
7843;SDS011;3967;48.702;9.326;2023-08-30T07:36:46;7.83;;;7.23;;
7843;SDS011;3967;48.702;9.326;2023-08-30T07:39:14;7.40;;;6.80;;
7843;SDS011;3967;48.702;9.326;2023-08-30T07:41:41;8.33;;;7.63;;
7843;SDS011;3967;48.702;9.326;2023-08-30T07:44:08;7.87;;;7.20;;
7843;SDS011;3967;48.702;9.326;2023-08-30T07:46:35;7.20;;;6.67;;
7843;SDS011;3967;48.702;9.326;2023-08-30T07:49:01;5.73;;;5.33;;
7843;SDS011;3967;48.702;9.326;2023-08-30T07:51:29;6.43;;;5.93;;
7843;SDS011;3967;48.702;9.326;2023-08-30T07:53:56;7.03;;;6.43;;
7843;SDS011;3967;48.702;9.326;2023-08-30T07:56:22;8.20;;;6.73;;
7843;SDS011;3967;48.702;9.326;2023-08-30T07:58:49;7.33;;;6.73;;
7843;SDS011;3967;48.702;9.326;2023-08-30T08:01:16;7.17;;;6.57;;
7843;SDS011;3967;48.702;9.326;2023-08-30T08:03:43;6.77;;;6.20;;
7843;SDS011;3967;48.702;9.326;2023-08-30T08:06:29;9.47;;;5.83;;
7843;SDS011;3967;48.702;9.326;2023-08-30T08:08:57;7.00;;;6.40;;
7843;SDS011;3967;48.702;9.326;2023-08-30T08:11:24;7.57;;;6.27;;
7843;SDS011;3967;48.702;9.326;2023-08-30T08:13:51;7.10;;;6.50;;
7843;SDS011;3967;48.702;9.326;2023-08-30T08:16:18;6.07;;;5.47;;
7843;SDS011;3967;48.702;9.326;2023-08-30T08:18:45;6.50;;;5.53;;
7843;SDS011;3967;48.702;9.326;2023-08-30T08:21:12;5.47;;;5.03;;
7843;SDS011;3967;48.702;9.326;2023-08-30T08:23:39;5.47;;;4.97;;
7843;SDS011;3967;48.702;9.326;2023-08-30T08:26:07;5.60;;;5.10;;
7843;SDS011;3967;48.702;9.326;2023-08-30T08:28:34;5.60;;;5.17;;
7843;SDS011;3967;48.702;9.326;2023-08-30T08:31:01;5.63;;;5.03;;
7843;SDS011;3967;48.702;9.326;2023-08-30T08:33:30;4.83;;;4.53;;
7843;SDS011;3967;48.702;9.326;2023-08-30T08:35:57;5.23;;;4.93;;
7843;SDS011;3967;48.702;9.326;2023-08-30T08:38:24;4.60;;;4.30;;
7843;SDS011;3967;48.702;9.326;2023-08-30T08:40:51;5.13;;;4.70;;
7843;SDS011;3967;48.702;9.326;2023-08-30T08:43:27;5.20;;;4.70;;
7843;SDS011;3967;48.702;9.326;2023-08-30T08:45:56;4.67;;;4.23;;
7843;SDS011;3967;48.702;9.326;2023-08-30T08:48:27;4.70;;;4.30;;
7843;SDS011;3967;48.702;9.326;2023-08-30T08:50:55;7.10;;;4.50;;
7843;SDS011;3967;48.702;9.326;2023-08-30T08:53:23;4.20;;;3.90;;
7843;SDS011;3967;48.702;9.326;2023-08-30T08:55:50;4.77;;;4.37;;
7843;SDS011;3967;48.702;9.326;2023-08-30T08:58:18;3.80;;;3.57;;
7843;SDS011;3967;48.702;9.326;2023-08-30T09:00:45;3.37;;;3.17;;
7843;SDS011;3967;48.702;9.326;2023-08-30T09:03:12;3.93;;;3.67;;
7843;SDS011;3967;48.702;9.326;2023-08-30T09:05:41;4.57;;;4.20;;
7843;SDS011;3967;48.702;9.326;2023-08-30T09:08:09;4.13;;;3.83;;
7843;SDS011;3967;48.702;9.326;2023-08-30T09:10:37;4.50;;;4.20;;
7843;SDS011;3967;48.702;9.326;2023-08-30T09:13:05;4.10;;;3.73;;
7843;SDS011;3967;48.702;9.326;2023-08-30T09:15:33;5.13;;;3.23;;
7843;SDS011;3967;48.702;9.326;2023-08-30T09:18:00;3.93;;;3.70;;
7843;SDS011;3967;48.702;9.326;2023-08-30T09:20:27;3.70;;;3.50;;
7843;SDS011;3967;48.702;9.326;2023-08-30T09:22:54;4.83;;;3.80;;
7843;SDS011;3967;48.702;9.326;2023-08-30T09:25:25;3.90;;;3.70;;
7843;SDS011;3967;48.702;9.326;2023-08-30T09:27:59;3.70;;;3.40;;
7843;SDS011;3967;48.702;9.326;2023-08-30T09:30:26;4.77;;;3.53;;
7843;SDS011;3967;48.702;9.326;2023-08-30T09:32:54;3.77;;;3.30;;
7843;SDS011;3967;48.702;9.326;2023-08-30T09:35:26;5.23;;;3.40;;
7843;SDS011;3967;48.702;9.326;2023-08-30T09:37:53;3.40;;;3.10;;
7843;SDS011;3967;48.702;9.326;2023-08-30T09:40:20;3.20;;;2.83;;
7843;SDS011;3967;48.702;9.326;2023-08-30T09:42:47;3.17;;;2.97;;
7843;SDS011;3967;48.702;9.326;2023-08-30T09:45:32;3.37;;;3.10;;
7843;SDS011;3967;48.702;9.326;2023-08-30T09:48:00;3.37;;;2.60;;
7843;SDS011;3967;48.702;9.326;2023-08-30T09:50:27;2.23;;;2.03;;
7843;SDS011;3967;48.702;9.326;2023-08-30T09:52:57;2.97;;;2.30;;
7843;SDS011;3967;48.702;9.326;2023-08-30T09:55:24;2.77;;;2.57;;
7843;SDS011;3967;48.702;9.326;2023-08-30T09:57:51;4.30;;;2.40;;
7843;SDS011;3967;48.702;9.326;2023-08-30T10:00:20;2.20;;;2.00;;
7843;SDS011;3967;48.702;9.326;2023-08-30T10:02:47;2.70;;;2.50;;
7843;SDS011;3967;48.702;9.326;2023-08-30T10:05:35;2.70;;;2.50;;
7843;SDS011;3967;48.702;9.326;2023-08-30T10:08:02;2.40;;;2.20;;
7843;SDS011;3967;48.702;9.326;2023-08-30T10:10:32;3.63;;;2.50;;
7843;SDS011;3967;48.702;9.326;2023-08-30T10:13:00;2.87;;;2.27;;
7843;SDS011;3967;48.702;9.326;2023-08-30T10:15:35;2.87;;;2.47;;
7843;SDS011;3967;48.702;9.326;2023-08-30T10:18:11;2.53;;;2.33;;
7843;SDS011;3967;48.702;9.326;2023-08-30T10:20:43;2.57;;;2.33;;
7843;SDS011;3967;48.702;9.326;2023-08-30T10:23:11;2.63;;;2.40;;
7843;SDS011;3967;48.702;9.326;2023-08-30T10:25:38;2.73;;;2.53;;
7843;SDS011;3967;48.702;9.326;2023-08-30T10:28:07;3.03;;;2.67;;
7843;SDS011;3967;48.702;9.326;2023-08-30T10:30:35;2.83;;;2.63;;
7843;SDS011;3967;48.702;9.326;2023-08-30T10:33:01;2.43;;;2.23;;
7843;SDS011;3967;48.702;9.326;2023-08-30T10:35:29;2.23;;;2.13;;
7843;SDS011;3967;48.702;9.326;2023-08-30T10:37:56;2.50;;;2.30;;
7843;SDS011;3967;48.702;9.326;2023-08-30T10:40:25;2.80;;;2.10;;
7843;SDS011;3967;48.702;9.326;2023-08-30T10:42:59;2.17;;;2.07;;
7843;SDS011;3967;48.702;9.326;2023-08-30T10:45:29;2.50;;;2.23;;
7843;SDS011;3967;48.702;9.326;2023-08-30T10:47:57;2.30;;;1.87;;
7843;SDS011;3967;48.702;9.326;2023-08-30T10:50:32;2.40;;;2.20;;
7843;SDS011;3967;48.702;9.326;2023-08-30T10:53:00;2.10;;;2.00;;
7843;SDS011;3967;48.702;9.326;2023-08-30T10:55:27;2.00;;;1.90;;
7843;SDS011;3967;48.702;9.326;2023-08-30T10:58:00;1.50;;;1.40;;
7843;SDS011;3967;48.702;9.326;2023-08-30T11:00:29;2.90;;;1.77;;
7843;SDS011;3967;48.702;9.326;2023-08-30T11:02:56;2.30;;;2.10;;
7843;SDS011;3967;48.702;9.326;2023-08-30T11:05:24;2.40;;;2.20;;
7843;SDS011;3967;48.702;9.326;2023-08-30T11:07:52;2.03;;;1.87;;
7843;SDS011;3967;48.702;9.326;2023-08-30T11:10:19;2.83;;;1.83;;
7843;SDS011;3967;48.702;9.326;2023-08-30T11:12:47;2.27;;;1.70;;
7843;SDS011;3967;48.702;9.326;2023-08-30T11:15:18;1.60;;;1.50;;
7843;SDS011;3967;48.702;9.326;2023-08-30T11:17:46;3.53;;;1.83;;
7843;SDS011;3967;48.702;9.326;2023-08-30T11:20:15;3.00;;;1.30;;
7843;SDS011;3967;48.702;9.326;2023-08-30T11:22:47;1.50;;;1.37;;
7843;SDS011;3967;48.702;9.326;2023-08-30T11:25:15;1.50;;;1.40;;
7843;SDS011;3967;48.702;9.326;2023-08-30T11:27:43;1.50;;;1.40;;
7843;SDS011;3967;48.702;9.326;2023-08-30T11:30:10;2.27;;;1.60;;
7843;SDS011;3967;48.702;9.326;2023-08-30T11:32:38;2.33;;;1.57;;
7843;SDS011;3967;48.702;9.326;2023-08-30T11:35:06;2.00;;;1.53;;
7843;SDS011;3967;48.702;9.326;2023-08-30T11:37:33;1.60;;;1.50;;
7843;SDS011;3967;48.702;9.326;2023-08-30T11:40:03;2.23;;;1.47;;
7843;SDS011;3967;48.702;9.326;2023-08-30T11:42:32;1.20;;;1.07;;
7843;SDS011;3967;48.702;9.326;2023-08-30T11:44:59;1.40;;;1.20;;
7843;SDS011;3967;48.702;9.326;2023-08-30T11:47:27;1.33;;;1.20;;
7843;SDS011;3967;48.702;9.326;2023-08-30T11:49:55;1.63;;;1.53;;
7843;SDS011;3967;48.702;9.326;2023-08-30T11:52:23;1.40;;;1.30;;
7843;SDS011;3967;48.702;9.326;2023-08-30T11:54:51;1.63;;;1.50;;
7843;SDS011;3967;48.702;9.326;2023-08-30T11:57:19;1.47;;;1.37;;
7843;SDS011;3967;48.702;9.326;2023-08-30T11:59:46;1.60;;;1.50;;
7843;SDS011;3967;48.702;9.326;2023-08-30T12:02:15;1.83;;;1.57;;
7843;SDS011;3967;48.702;9.326;2023-08-30T12:04:43;3.20;;;1.20;;
7843;SDS011;3967;48.702;9.326;2023-08-30T12:07:25;2.90;;;1.27;;
7843;SDS011;3967;48.702;9.326;2023-08-30T12:10:03;8.73;;;1.40;;
7843;SDS011;3967;48.702;9.326;2023-08-30T12:12:31;1.50;;;1.30;;
7843;SDS011;3967;48.702;9.326;2023-08-30T12:14:58;1.13;;;1.13;;
7843;SDS011;3967;48.702;9.326;2023-08-30T12:17:24;1.60;;;1.50;;
7843;SDS011;3967;48.702;9.326;2023-08-30T12:19:55;2.73;;;1.30;;
7843;SDS011;3967;48.702;9.326;2023-08-30T12:22:37;2.50;;;1.20;;
7843;SDS011;3967;48.702;9.326;2023-08-30T12:25:19;2.20;;;1.13;;
7843;SDS011;3967;48.702;9.326;2023-08-30T12:27:47;6.43;;;1.20;;
7843;SDS011;3967;48.702;9.326;2023-08-30T12:30:15;1.17;;;1.00;;
7843;SDS011;3967;48.702;9.326;2023-08-30T12:32:43;1.30;;;1.20;;
7843;SDS011;3967;48.702;9.326;2023-08-30T12:35:11;0.63;;;0.63;;
7843;SDS011;3967;48.702;9.326;2023-08-30T12:37:37;1.00;;;1.00;;
7843;SDS011;3967;48.702;9.326;2023-08-30T12:40:04;2.37;;;1.20;;
7843;SDS011;3967;48.702;9.326;2023-08-30T12:42:32;1.40;;;1.30;;
7843;SDS011;3967;48.702;9.326;2023-08-30T12:44:59;3.47;;;1.20;;
7843;SDS011;3967;48.702;9.326;2023-08-30T12:47:27;3.40;;;1.73;;
7843;SDS011;3967;48.702;9.326;2023-08-30T12:49:55;1.47;;;1.37;;
7843;SDS011;3967;48.702;9.326;2023-08-30T12:52:21;2.03;;;1.53;;
7843;SDS011;3967;48.702;9.326;2023-08-30T12:54:48;1.20;;;1.20;;
7843;SDS011;3967;48.702;9.326;2023-08-30T12:57:15;1.50;;;1.40;;
7843;SDS011;3967;48.702;9.326;2023-08-30T12:59:41;1.77;;;1.67;;
7843;SDS011;3967;48.702;9.326;2023-08-30T13:02:08;1.67;;;1.20;;
7843;SDS011;3967;48.702;9.326;2023-08-30T13:04:35;1.67;;;1.27;;
7843;SDS011;3967;48.702;9.326;2023-08-30T13:07:04;1.40;;;1.07;;
7843;SDS011;3967;48.702;9.326;2023-08-30T13:09:31;2.30;;;1.30;;
7843;SDS011;3967;48.702;9.326;2023-08-30T13:11:58;1.53;;;1.43;;
7843;SDS011;3967;48.702;9.326;2023-08-30T13:14:25;2.07;;;1.57;;
7843;SDS011;3967;48.702;9.326;2023-08-30T13:16:52;1.60;;;1.50;;
7843;SDS011;3967;48.702;9.326;2023-08-30T13:19:18;2.00;;;1.60;;
7843;SDS011;3967;48.702;9.326;2023-08-30T13:21:45;1.60;;;1.50;;
7843;SDS011;3967;48.702;9.326;2023-08-30T13:24:12;2.67;;;1.90;;
7843;SDS011;3967;48.702;9.326;2023-08-30T13:26:39;1.53;;;1.30;;
7843;SDS011;3967;48.702;9.326;2023-08-30T13:29:05;1.67;;;1.57;;
7843;SDS011;3967;48.702;9.326;2023-08-30T13:31:32;1.60;;;1.50;;
7843;SDS011;3967;48.702;9.326;2023-08-30T13:33:59;1.53;;;1.43;;
7843;SDS011;3967;48.702;9.326;2023-08-30T13:36:26;2.43;;;1.80;;
7843;SDS011;3967;48.702;9.326;2023-08-30T13:38:55;1.80;;;1.70;;
7843;SDS011;3967;48.702;9.326;2023-08-30T13:41:22;1.70;;;1.60;;
7843;SDS011;3967;48.702;9.326;2023-08-30T13:43:49;1.90;;;1.80;;
7843;SDS011;3967;48.702;9.326;2023-08-30T13:46:16;1.40;;;1.30;;
7843;SDS011;3967;48.702;9.326;2023-08-30T13:48:42;2.40;;;1.60;;
7843;SDS011;3967;48.702;9.326;2023-08-30T13:51:09;3.43;;;1.93;;
7843;SDS011;3967;48.702;9.326;2023-08-30T13:53:36;2.17;;;2.00;;
7843;SDS011;3967;48.702;9.326;2023-08-30T13:56:03;2.07;;;1.87;;
7843;SDS011;3967;48.702;9.326;2023-08-30T13:58:29;2.37;;;2.17;;
7843;SDS011;3967;48.702;9.326;2023-08-30T14:00:56;2.50;;;2.10;;
7843;SDS011;3967;48.702;9.326;2023-08-30T14:03:23;2.07;;;1.97;;
7843;SDS011;3967;48.702;9.326;2023-08-30T14:05:49;1.80;;;1.70;;
7843;SDS011;3967;48.702;9.326;2023-08-30T14:08:16;3.57;;;1.63;;
7843;SDS011;3967;48.702;9.326;2023-08-30T14:10:43;3.43;;;1.60;;
7843;SDS011;3967;48.702;9.326;2023-08-30T14:13:10;2.30;;;1.60;;
7843;SDS011;3967;48.702;9.326;2023-08-30T14:15:37;2.70;;;2.37;;
7843;SDS011;3967;48.702;9.326;2023-08-30T14:18:04;1.70;;;1.60;;
7843;SDS011;3967;48.702;9.326;2023-08-30T14:20:31;2.20;;;2.10;;
7843;SDS011;3967;48.702;9.326;2023-08-30T14:22:57;1.83;;;1.73;;
7843;SDS011;3967;48.702;9.326;2023-08-30T14:25:24;2.07;;;1.97;;
7843;SDS011;3967;48.702;9.326;2023-08-30T14:27:51;1.87;;;1.60;;
7843;SDS011;3967;48.702;9.326;2023-08-30T14:30:18;1.50;;;1.40;;
7843;SDS011;3967;48.702;9.326;2023-08-30T14:32:45;1.43;;;1.33;;
7843;SDS011;3967;48.702;9.326;2023-08-30T14:35:11;1.50;;;1.40;;
7843;SDS011;3967;48.702;9.326;2023-08-30T14:37:38;1.97;;;1.60;;
7843;SDS011;3967;48.702;9.326;2023-08-30T14:40:06;1.60;;;1.50;;
7843;SDS011;3967;48.702;9.326;2023-08-30T14:42:33;1.30;;;1.20;;
7843;SDS011;3967;48.702;9.326;2023-08-30T14:45:00;2.23;;;1.60;;
7843;SDS011;3967;48.702;9.326;2023-08-30T14:47:29;1.97;;;1.70;;
7843;SDS011;3967;48.702;9.326;2023-08-30T14:49:57;2.47;;;1.50;;
7843;SDS011;3967;48.702;9.326;2023-08-30T14:52:23;1.93;;;1.53;;
7843;SDS011;3967;48.702;9.326;2023-08-30T14:54:50;1.77;;;1.67;;
7843;SDS011;3967;48.702;9.326;2023-08-30T14:57:17;1.63;;;1.53;;
7843;SDS011;3967;48.702;9.326;2023-08-30T14:59:44;2.07;;;1.50;;
7843;SDS011;3967;48.702;9.326;2023-08-30T15:02:12;1.43;;;1.33;;
7843;SDS011;3967;48.702;9.326;2023-08-30T15:04:39;1.50;;;1.40;;
7843;SDS011;3967;48.702;9.326;2023-08-30T15:07:06;9.90;;;1.70;;
7843;SDS011;3967;48.702;9.326;2023-08-30T15:09:33;2.27;;;1.50;;
7843;SDS011;3967;48.702;9.326;2023-08-30T15:12:00;2.67;;;1.70;;
7843;SDS011;3967;48.702;9.326;2023-08-30T15:14:26;2.30;;;1.37;;
7843;SDS011;3967;48.702;9.326;2023-08-30T15:16:53;2.10;;;1.50;;
7843;SDS011;3967;48.702;9.326;2023-08-30T15:19:20;4.10;;;1.70;;
7843;SDS011;3967;48.702;9.326;2023-08-30T15:21:47;2.07;;;1.50;;
7843;SDS011;3967;48.702;9.326;2023-08-30T15:24:13;1.70;;;1.60;;
7843;SDS011;3967;48.702;9.326;2023-08-30T15:26:43;2.27;;;1.67;;